Portada
METAR-TAF:

METAR-TAF

Aeroports :

Chariton Municipal Airport

Chariton, Iowa, Estats Units d'Amèrica

latitud: 41-02N, longitud: 093-22W, altitud: 320 m

Observació

L'informe es va fer fa 25 minuts, a les 13:35 UTC
Vent 5 kt del Sud/Sud-Est
Temperatura -2°C
Humitat 100%
Pressió 1009 hPa
Visibilitat: 4.8 km
Cel clar
boirina

METAR: KCNC 181335Z AUTO 16005KT 3SM BR CLR M02/M02 A2981 RMK AO2

Hora: 08:00 (14:00 UTC)


TAF: manca

Observacions i pronòstics meteorològics de més de 4000 aeroports (METAR i TAF).

Les estacions disponibles són els punts grocs i vermells al mapa.

Posi el ratolí al punt desitjat per veure el nom de l'estació.

Feu clic per veure les observacions i els pronòstics meteorològics.

Per canviar el mapa: feu clic els botons verds amb una creu de color negre per apropar; al botó verd amb un guió per allunyar la imatge; o en les fletxes verdes per a mapes adjacents.


METAR-TAF: